sensor_id;sensor_type;location;lat;lon;timestamp;pressure;altitude;pressure_sealevel;temperature;humidity
7966;BME280;4028;43.272;26.932;2024-03-02T00:00:49;98958.41;;;8.38;100.00
7966;BME280;4028;43.272;26.932;2024-03-02T00:03:15;98961.31;;;8.44;100.00
7966;BME280;4028;43.272;26.932;2024-03-02T00:05:41;98930.72;;;8.22;100.00
7966;BME280;4028;43.272;26.932;2024-03-02T00:08:07;98941.97;;;8.24;100.00
7966;BME280;4028;43.272;26.932;2024-03-02T00:10:39;98953.13;;;8.38;100.00
7966;BME280;4028;43.272;26.932;2024-03-02T00:13:08;98952.81;;;8.31;100.00
7966;BME280;4028;43.272;26.932;2024-03-02T00:18:09;98929.69;;;8.14;100.00
7966;BME280;4028;43.272;26.932;2024-03-02T00:20:35;98917.94;;;8.18;100.00
7966;BME280;4028;43.272;26.932;2024-03-02T00:23:06;98879.97;;;7.90;100.00
7966;BME280;4028;43.272;26.932;2024-03-02T00:25:48;98945.53;;;8.23;100.00
7966;BME280;4028;43.272;26.932;2024-03-02T00:28:20;98944.69;;;8.13;100.00
7966;BME280;4028;43.272;26.932;2024-03-02T00:30:55;98949.03;;;8.33;100.00
7966;BME280;4028;43.272;26.932;2024-03-02T00:33:27;98939.78;;;8.39;100.00
7966;BME280;4028;43.272;26.932;2024-03-02T00:35:53;98950.13;;;8.52;100.00
7966;BME280;4028;43.272;26.932;2024-03-02T00:38:19;98905.06;;;8.34;100.00
7966;BME280;4028;43.272;26.932;2024-03-02T00:40:45;98919.22;;;8.33;100.00
7966;BME280;4028;43.272;26.932;2024-03-02T00:43:45;98926.50;;;8.41;100.00
7966;BME280;4028;43.272;26.932;2024-03-02T00:46:12;98926.22;;;8.44;100.00
7966;BME280;4028;43.272;26.932;2024-03-02T00:48:39;98934.41;;;8.41;100.00
7966;BME280;4028;43.272;26.932;2024-03-02T00:51:10;98927.84;;;8.35;100.00
7966;BME280;4028;43.272;26.932;2024-03-02T00:53:36;98920.59;;;8.27;100.00
7966;BME280;4028;43.272;26.932;2024-03-02T00:56:02;98898.25;;;8.22;100.00
7966;BME280;4028;43.272;26.932;2024-03-02T00:58:28;98904.63;;;8.19;100.00
7966;BME280;4028;43.272;26.932;2024-03-02T01:00:53;98914.03;;;8.12;100.00
7966;BME280;4028;43.272;26.932;2024-03-02T01:03:19;98905.91;;;8.25;100.00
7966;BME280;4028;43.272;26.932;2024-03-02T01:05:44;98908.22;;;8.18;100.00
7966;BME280;4028;43.272;26.932;2024-03-02T01:08:10;98898.25;;;8.22;100.00
7966;BME280;4028;43.272;26.932;2024-03-02T01:10:36;98898.38;;;8.20;100.00
7966;BME280;4028;43.272;26.932;2024-03-02T01:13:02;98889.31;;;8.03;100.00
7966;BME280;4028;43.272;26.932;2024-03-02T01:15:27;98882.19;;;8.25;100.00
7966;BME280;4028;43.272;26.932;2024-03-02T01:17:52;98895.94;;;8.38;100.00
7966;BME280;4028;43.272;26.932;2024-03-02T01:20:18;98891.03;;;8.33;100.00
7966;BME280;4028;43.272;26.932;2024-03-02T01:22:44;98898.38;;;8.20;100.00
7966;BME280;4028;43.272;26.932;2024-03-02T01:25:09;98898.66;;;8.17;100.00
7966;BME280;4028;43.272;26.932;2024-03-02T01:27:35;98897.25;;;8.13;100.00
7966;BME280;4028;43.272;26.932;2024-03-02T01:30:00;98894.91;;;8.10;100.00
7966;BME280;4028;43.272;26.932;2024-03-02T01:32:26;98892.25;;;8.10;100.00
7966;BME280;4028;43.272;26.932;2024-03-02T01:34:52;98892.81;;;8.14;100.00
7966;BME280;4028;43.272;26.932;2024-03-02T01:37:17;98891.72;;;8.16;100.00
7966;BME280;4028;43.272;26.932;2024-03-02T01:39:43;98892.16;;;8.31;100.00
7966;BME280;4028;43.272;26.932;2024-03-02T01:42:08;98882.72;;;8.28;100.00
7966;BME280;4028;43.272;26.932;2024-03-02T01:44:36;98855.47;;;8.08;100.00
7966;BME280;4028;43.272;26.932;2024-03-02T01:47:01;98879.50;;;8.15;100.00
7966;BME280;4028;43.272;26.932;2024-03-02T01:49:27;98871.59;;;8.15;100.00
7966;BME280;4028;43.272;26.932;2024-03-02T01:51:52;98868.84;;;8.26;100.00
7966;BME280;4028;43.272;26.932;2024-03-02T01:54:18;98872.28;;;8.17;100.00
7966;BME280;4028;43.272;26.932;2024-03-02T01:56:43;98865.63;;;8.23;100.00
7966;BME280;4028;43.272;26.932;2024-03-02T01:59:10;98862.56;;;8.18;100.00
7966;BME280;4028;43.272;26.932;2024-03-02T02:01:35;98868.75;;;8.38;100.00
7966;BME280;4028;43.272;26.932;2024-03-02T02:04:01;98853.44;;;8.22;100.00
7966;BME280;4028;43.272;26.932;2024-03-02T02:06:26;98869.81;;;8.25;100.00
7966;BME280;4028;43.272;26.932;2024-03-02T02:08:52;98869.53;;;8.28;100.00
7966;BME280;4028;43.272;26.932;2024-03-02T02:11:17;98872.38;;;8.37;100.00
7966;BME280;4028;43.272;26.932;2024-03-02T02:13:44;98880.13;;;8.38;100.00
7966;BME280;4028;43.272;26.932;2024-03-02T02:16:09;98875.00;;;8.37;100.00
7966;BME280;4028;43.272;26.932;2024-03-02T02:18:35;98880.06;;;8.28;100.00
7966;BME280;4028;43.272;26.932;2024-03-02T02:21:02;98883.97;;;8.24;100.00
7966;BME280;4028;43.272;26.932;2024-03-02T02:23:27;98888.97;;;8.27;100.00
7966;BME280;4028;43.272;26.932;2024-03-02T02:25:53;98890.09;;;8.25;100.00
7966;BME280;4028;43.272;26.932;2024-03-02T02:28:18;98875.91;;;8.16;100.00
7966;BME280;4028;43.272;26.932;2024-03-02T02:30:44;98871.44;;;8.07;100.00
7966;BME280;4028;43.272;26.932;2024-03-02T02:33:09;98882.03;;;8.26;100.00
7966;BME280;4028;43.272;26.932;2024-03-02T02:35:35;98872.47;;;8.25;100.00
7966;BME280;4028;43.272;26.932;2024-03-02T02:38:00;98864.78;;;8.13;100.00
7966;BME280;4028;43.272;26.932;2024-03-02T02:40:27;98861.91;;;8.25;100.00
7966;BME280;4028;43.272;26.932;2024-03-02T02:42:56;98861.81;;;8.37;100.00
7966;BME280;4028;43.272;26.932;2024-03-02T02:45:22;98853.31;;;8.33;100.00
7966;BME280;4028;43.272;26.932;2024-03-02T02:47:47;98861.22;;;8.33;100.00
7966;BME280;4028;43.272;26.932;2024-03-02T02:50:13;98851.91;;;8.29;100.00
7966;BME280;4028;43.272;26.932;2024-03-02T02:52:40;98854.03;;;8.35;100.00
7966;BME280;4028;43.272;26.932;2024-03-02T02:55:10;98851.28;;;8.37;100.00
7966;BME280;4028;43.272;26.932;2024-03-02T02:57:37;98833.88;;;8.15;100.00
7966;BME280;4028;43.272;26.932;2024-03-02T03:00:14;98842.06;;;8.21;100.00
7966;BME280;4028;43.272;26.932;2024-03-02T03:02:40;98851.22;;;8.17;100.00
7966;BME280;4028;43.272;26.932;2024-03-02T03:05:11;98845.25;;;8.15;100.00
7966;BME280;4028;43.272;26.932;2024-03-02T03:07:37;98845.09;;;8.07;100.00
7966;BME280;4028;43.272;26.932;2024-03-02T03:10:04;98843.16;;;8.09;100.00
7966;BME280;4028;43.272;26.932;2024-03-02T03:12:30;98843.41;;;8.06;100.00
7966;BME280;4028;43.272;26.932;2024-03-02T03:14:56;98843.94;;;7.90;100.00
7966;BME280;4028;43.272;26.932;2024-03-02T03:17:22;98804.66;;;7.77;100.00
7966;BME280;4028;43.272;26.932;2024-03-02T03:19:48;98817.19;;;7.95;100.00
7966;BME280;4028;43.272;26.932;2024-03-02T03:22:14;98842.19;;;8.10;100.00
7966;BME280;4028;43.272;26.932;2024-03-02T03:24:39;98836.78;;;8.12;100.00
7966;BME280;4028;43.272;26.932;2024-03-02T03:27:05;98843.59;;;8.14;100.00
7966;BME280;4028;43.272;26.932;2024-03-02T03:29:30;98839.81;;;8.07;100.00
7966;BME280;4028;43.272;26.932;2024-03-02T03:31:56;98833.31;;;8.11;100.00
7966;BME280;4028;43.272;26.932;2024-03-02T03:34:21;98842.75;;;8.23;100.00
7966;BME280;4028;43.272;26.932;2024-03-02T03:36:47;98797.19;;;7.92;100.00
7966;BME280;4028;43.272;26.932;2024-03-02T03:39:12;98844.94;;;7.99;100.00
7966;BME280;4028;43.272;26.932;2024-03-02T03:41:38;98850.50;;;8.05;100.00
7966;BME280;4028;43.272;26.932;2024-03-02T03:44:03;98860.34;;;8.13;100.00
7966;BME280;4028;43.272;26.932;2024-03-02T03:46:29;98854.13;;;8.14;100.00
7966;BME280;4028;43.272;26.932;2024-03-02T03:48:54;98869.22;;;8.12;100.00
7966;BME280;4028;43.272;26.932;2024-03-02T03:51:21;98868.22;;;8.03;100.00
7966;BME280;4028;43.272;26.932;2024-03-02T03:53:48;98863.25;;;8.00;100.00
7966;BME280;4028;43.272;26.932;2024-03-02T03:56:14;98863.38;;;8.08;100.00
7966;BME280;4028;43.272;26.932;2024-03-02T03:58:39;98810.34;;;7.73;100.00
7966;BME280;4028;43.272;26.932;2024-03-02T04:01:05;98863.09;;;8.02;100.00
7966;BME280;4028;43.272;26.932;2024-03-02T04:03:30;98860.47;;;8.02;100.00
7966;BME280;4028;43.272;26.932;2024-03-02T04:05:56;98862.56;;;8.08;100.00
7966;BME280;4028;43.272;26.932;2024-03-02T04:08:21;98860.66;;;8.20;100.00
7966;BME280;4028;43.272;26.932;2024-03-02T04:10:47;98845.22;;;8.05;100.00
7966;BME280;4028;43.272;26.932;2024-03-02T04:13:12;98843.97;;;8.00;100.00
7966;BME280;4028;43.272;26.932;2024-03-02T04:15:38;98863.09;;;8.02;100.00
7966;BME280;4028;43.272;26.932;2024-03-02T04:18:03;98866.41;;;7.94;100.00
7966;BME280;4028;43.272;26.932;2024-03-02T04:20:29;98868.47;;;7.91;100.00
7966;BME280;4028;43.272;26.932;2024-03-02T04:22:55;98875.97;;;7.95;100.00
7966;BME280;4028;43.272;26.932;2024-03-02T04:25:20;98872.94;;;8.00;100.00
7966;BME280;4028;43.272;26.932;2024-03-02T04:27:46;98875.97;;;7.95;100.00
7966;BME280;4028;43.272;26.932;2024-03-02T04:30:12;98873.25;;;8.06;100.00
7966;BME280;4028;43.272;26.932;2024-03-02T04:32:37;98870.31;;;8.00;100.00
7966;BME280;4028;43.272;26.932;2024-03-02T04:35:04;98871.94;;;7.91;100.00
7966;BME280;4028;43.272;26.932;2024-03-02T04:37:33;98867.66;;;7.90;100.00
7966;BME280;4028;43.272;26.932;2024-03-02T04:39:58;98869.44;;;7.90;100.00
7966;BME280;4028;43.272;26.932;2024-03-02T04:42:23;98867.66;;;7.90;100.00
7966;BME280;4028;43.272;26.932;2024-03-02T04:44:49;98861.06;;;7.75;100.00
7966;BME280;4028;43.272;26.932;2024-03-02T04:47:15;98866.53;;;7.93;100.00
7966;BME280;4028;43.272;26.932;2024-03-02T04:49:40;98867.78;;;7.98;100.00
7966;BME280;4028;43.272;26.932;2024-03-02T04:52:06;98868.91;;;7.96;100.00
7966;BME280;4028;43.272;26.932;2024-03-02T04:54:31;98870.56;;;7.97;100.00
7966;BME280;4028;43.272;26.932;2024-03-02T04:56:57;98859.34;;;7.95;100.00
7966;BME280;4028;43.272;26.932;2024-03-02T04:59:23;98870.13;;;7.92;100.00
7966;BME280;4028;43.272;26.932;2024-03-02T05:01:49;98866.03;;;7.99;100.00
7966;BME280;4028;43.272;26.932;2024-03-02T05:04:14;98870.88;;;8.13;100.00
7966;BME280;4028;43.272;26.932;2024-03-02T05:06:40;98843.78;;;7.92;100.00
7966;BME280;4028;43.272;26.932;2024-03-02T05:09:07;98866.72;;;8.01;100.00
7966;BME280;4028;43.272;26.932;2024-03-02T05:11:33;98858.53;;;8.04;100.00
7966;BME280;4028;43.272;26.932;2024-03-02T05:14:05;98867.59;;;8.21;100.00
7966;BME280;4028;43.272;26.932;2024-03-02T05:16:35;98865.38;;;8.26;100.00
7966;BME280;4028;43.272;26.932;2024-03-02T05:19:01;98867.03;;;8.27;100.00
7966;BME280;4028;43.272;26.932;2024-03-02T05:21:26;98857.88;;;8.21;100.00
7966;BME280;4028;43.272;26.932;2024-03-02T05:23:52;98860.50;;;8.21;100.00
7966;BME280;4028;43.272;26.932;2024-03-02T05:26:17;98845.25;;;8.15;100.00
7966;BME280;4028;43.272;26.932;2024-03-02T05:28:43;98854.38;;;8.11;100.00
7966;BME280;4028;43.272;26.932;2024-03-02T05:31:11;98853.53;;;8.01;100.00
7966;BME280;4028;43.272;26.932;2024-03-02T05:33:40;98858.81;;;8.01;100.00
7966;BME280;4028;43.272;26.932;2024-03-02T05:36:06;98868.09;;;8.05;100.00
7966;BME280;4028;43.272;26.932;2024-03-02T05:38:32;98871.47;;;8.17;100.00
7966;BME280;4028;43.272;26.932;2024-03-02T05:40:57;98865.94;;;8.20;100.00
7966;BME280;4028;43.272;26.932;2024-03-02T05:43:23;98859.47;;;8.43;100.00
7966;BME280;4028;43.272;26.932;2024-03-02T05:45:48;98855.78;;;8.15;100.00
7966;BME280;4028;43.272;26.932;2024-03-02T05:48:14;98863.84;;;8.33;100.00
7966;BME280;4028;43.272;26.932;2024-03-02T05:50:40;98863.66;;;8.46;100.00
7966;BME280;4028;43.272;26.932;2024-03-02T05:53:05;98861.56;;;8.40;100.00
7966;BME280;4028;43.272;26.932;2024-03-02T05:55:31;98871.75;;;8.23;100.00
7966;BME280;4028;43.272;26.932;2024-03-02T05:57:56;98868.03;;;8.36;100.00
7966;BME280;4028;43.272;26.932;2024-03-02T06:00:28;98874.31;;;8.44;100.00
7966;BME280;4028;43.272;26.932;2024-03-02T06:02:53;98859.81;;;8.10;100.00
7966;BME280;4028;43.272;26.932;2024-03-02T06:05:19;98865.22;;;8.18;100.00
7966;BME280;4028;43.272;26.932;2024-03-02T06:07:44;98879.13;;;8.29;100.00
7966;BME280;4028;43.272;26.932;2024-03-02T06:10:10;98873.00;;;8.29;100.00
7966;BME280;4028;43.272;26.932;2024-03-02T06:12:36;98875.50;;;8.21;100.00
7966;BME280;4028;43.272;26.932;2024-03-02T06:15:01;98863.13;;;8.12;100.00
7966;BME280;4028;43.272;26.932;2024-03-02T06:17:27;98875.31;;;8.13;100.00
7966;BME280;4028;43.272;26.932;2024-03-02T06:19:52;98875.66;;;8.19;100.00
7966;BME280;4028;43.272;26.932;2024-03-02T06:22:18;98877.84;;;8.24;100.00
7966;BME280;4028;43.272;26.932;2024-03-02T06:24:44;98882.44;;;8.22;100.00
7966;BME280;4028;43.272;26.932;2024-03-02T06:27:09;98867.31;;;8.14;100.00
7966;BME280;4028;43.272;26.932;2024-03-02T06:29:35;98876.19;;;8.23;100.00
7966;BME280;4028;43.272;26.932;2024-03-02T06:32:00;98875.13;;;8.35;100.00
7966;BME280;4028;43.272;26.932;2024-03-02T06:34:26;98870.38;;;8.29;100.00
7966;BME280;4028;43.272;26.932;2024-03-02T06:36:51;98867.31;;;8.33;100.00
7966;BME280;4028;43.272;26.932;2024-03-02T06:39:17;98862.75;;;8.36;100.00
7966;BME280;4028;43.272;26.932;2024-03-02T06:41:42;98869.75;;;8.46;100.00
7966;BME280;4028;43.272;26.932;2024-03-02T06:44:08;98873.78;;;8.50;100.00
7966;BME280;4028;43.272;26.932;2024-03-02T06:46:33;98869.34;;;8.61;100.00
7966;BME280;4028;43.272;26.932;2024-03-02T06:48:59;98872.09;;;8.49;100.00
7966;BME280;4028;43.272;26.932;2024-03-02T06:51:24;98870.03;;;8.63;100.00
7966;BME280;4028;43.272;26.932;2024-03-02T06:53:50;98867.25;;;8.64;100.00
7966;BME280;4028;43.272;26.932;2024-03-02T06:56:15;98859.91;;;8.58;100.00
7966;BME280;4028;43.272;26.932;2024-03-02T06:58:41;98859.63;;;8.61;100.00
7966;BME280;4028;43.272;26.932;2024-03-02T07:01:08;98858.25;;;8.67;100.00
7966;BME280;4028;43.272;26.932;2024-03-02T07:03:33;98855.75;;;8.65;100.00
7966;BME280;4028;43.272;26.932;2024-03-02T07:05:59;98853.78;;;8.67;100.00
7966;BME280;4028;43.272;26.932;2024-03-02T07:08:24;98850.06;;;8.60;100.00
7966;BME280;4028;43.272;26.932;2024-03-02T07:10:50;98850.59;;;8.73;100.00
7966;BME280;4028;43.272;26.932;2024-03-02T07:13:15;98841.84;;;8.82;100.00
7966;BME280;4028;43.272;26.932;2024-03-02T07:15:41;98826.19;;;8.62;100.00
7966;BME280;4028;43.272;26.932;2024-03-02T07:18:25;98841.28;;;8.69;100.00
7966;BME280;4028;43.272;26.932;2024-03-02T07:20:51;98839.06;;;8.74;100.00
7966;BME280;4028;43.272;26.932;2024-03-02T07:23:16;98841.19;;;8.80;100.00
7966;BME280;4028;43.272;26.932;2024-03-02T07:25:41;98828.25;;;8.77;100.00
7966;BME280;4028;43.272;26.932;2024-03-02T07:28:07;98841.53;;;9.05;100.00
7966;BME280;4028;43.272;26.932;2024-03-02T07:30:33;98846.22;;;9.21;100.00
7966;BME280;4028;43.272;26.932;2024-03-02T07:32:59;98841.25;;;9.08;100.00
7966;BME280;4028;43.272;26.932;2024-03-02T07:35:25;98842.38;;;9.05;100.00
7966;BME280;4028;43.272;26.932;2024-03-02T07:37:53;98855.16;;;9.00;100.00
7966;BME280;4028;43.272;26.932;2024-03-02T07:40:19;98846.81;;;9.05;100.00
7966;BME280;4028;43.272;26.932;2024-03-02T07:42:45;98861.00;;;9.04;100.00
7966;BME280;4028;43.272;26.932;2024-03-02T07:45:10;98860.84;;;9.05;100.00
7966;BME280;4028;43.272;26.932;2024-03-02T07:47:36;98854.06;;;9.03;100.00
7966;BME280;4028;43.272;26.932;2024-03-02T07:50:02;98841.44;;;8.97;100.00
7966;BME280;4028;43.272;26.932;2024-03-02T07:52:31;98842.50;;;9.14;100.00
7966;BME280;4028;43.272;26.932;2024-03-02T07:54:57;98839.13;;;9.21;100.00
7966;BME280;4028;43.272;26.932;2024-03-02T07:57:22;98845.38;;;9.30;100.00
7966;BME280;4028;43.272;26.932;2024-03-02T07:59:48;98830.59;;;9.47;100.00
7966;BME280;4028;43.272;26.932;2024-03-02T08:02:14;98809.25;;;9.30;100.00
7966;BME280;4028;43.272;26.932;2024-03-02T08:04:40;98835.22;;;9.35;100.00
7966;BME280;4028;43.272;26.932;2024-03-02T08:07:06;98828.41;;;9.42;100.00
7966;BME280;4028;43.272;26.932;2024-03-02T08:09:31;98829.72;;;9.56;100.00
7966;BME280;4028;43.272;26.932;2024-03-02T08:11:57;98825.16;;;9.85;100.00
7966;BME280;4028;43.272;26.932;2024-03-02T08:14:23;98822.03;;;10.00;100.00
7966;BME280;4028;43.272;26.932;2024-03-02T08:16:49;98814.16;;;9.90;100.00
7966;BME280;4028;43.272;26.932;2024-03-02T08:19:15;98819.94;;;10.03;100.00
7966;BME280;4028;43.272;26.932;2024-03-02T08:21:41;98821.91;;;9.92;100.00
7966;BME280;4028;43.272;26.932;2024-03-02T08:24:08;98829.88;;;9.82;100.00
7966;BME280;4028;43.272;26.932;2024-03-02T08:26:33;98832.81;;;9.88;100.00
7966;BME280;4028;43.272;26.932;2024-03-02T08:28:59;98827.75;;;9.95;100.00
7966;BME280;4028;43.272;26.932;2024-03-02T08:31:27;98825.22;;;10.03;100.00
7966;BME280;4028;43.272;26.932;2024-03-02T08:33:52;98837.78;;;9.92;100.00
7966;BME280;4028;43.272;26.932;2024-03-02T08:36:18;98831.59;;;10.01;100.00
7966;BME280;4028;43.272;26.932;2024-03-02T08:38:44;98814.41;;;10.24;100.00
7966;BME280;4028;43.272;26.932;2024-03-02T08:41:10;98829.13;;;10.27;100.00
7966;BME280;4028;43.272;26.932;2024-03-02T08:43:38;98835.94;;;10.29;100.00
7966;BME280;4028;43.272;26.932;2024-03-02T08:46:05;98839.34;;;10.39;100.00
7966;BME280;4028;43.272;26.932;2024-03-02T08:48:30;98833.50;;;10.36;100.00
7966;BME280;4028;43.272;26.932;2024-03-02T08:50:56;98833.81;;;10.23;100.00
7966;BME280;4028;43.272;26.932;2024-03-02T08:53:21;98835.19;;;10.09;100.00
7966;BME280;4028;43.272;26.932;2024-03-02T08:55:47;98841.16;;;10.11;100.00
7966;BME280;4028;43.272;26.932;2024-03-02T08:58:12;98820.16;;;10.10;100.00
7966;BME280;4028;43.272;26.932;2024-03-02T09:00:38;98835.09;;;10.47;100.00
7966;BME280;4028;43.272;26.932;2024-03-02T09:03:04;98835.84;;;10.57;100.00
7966;BME280;4028;43.272;26.932;2024-03-02T09:05:29;98838.22;;;10.60;100.00
7966;BME280;4028;43.272;26.932;2024-03-02T09:07:55;98834.50;;;10.71;100.00
7966;BME280;4028;43.272;26.932;2024-03-02T09:10:20;98823.09;;;10.52;100.00
7966;BME280;4028;43.272;26.932;2024-03-02T09:12:46;98814.84;;;10.37;100.00
7966;BME280;4028;43.272;26.932;2024-03-02T09:15:12;98843.13;;;10.55;100.00
7966;BME280;4028;43.272;26.932;2024-03-02T09:17:37;98834.78;;;10.67;100.00
7966;BME280;4028;43.272;26.932;2024-03-02T09:20:04;98837.66;;;10.74;100.00
7966;BME280;4028;43.272;26.932;2024-03-02T09:22:29;98834.09;;;10.83;100.00
7966;BME280;4028;43.272;26.932;2024-03-02T09:24:55;98829.13;;;10.80;100.00
7966;BME280;4028;43.272;26.932;2024-03-02T09:27:21;98832.25;;;10.76;100.00
7966;BME280;4028;43.272;26.932;2024-03-02T09:29:47;98821.41;;;10.87;100.00
7966;BME280;4028;43.272;26.932;2024-03-02T09:32:13;98820.53;;;11.04;100.00
7966;BME280;4028;43.272;26.932;2024-03-02T09:34:39;98828.91;;;11.43;100.00
7966;BME280;4028;43.272;26.932;2024-03-02T09:37:05;98830.28;;;11.56;100.00
7966;BME280;4028;43.272;26.932;2024-03-02T09:39:31;98821.97;;;11.51;100.00
7966;BME280;4028;43.272;26.932;2024-03-02T09:41:58;98820.81;;;11.19;100.00
7966;BME280;4028;43.272;26.932;2024-03-02T09:44:24;98803.06;;;11.11;100.00
7966;BME280;4028;43.272;26.932;2024-03-02T09:46:51;98821.19;;;11.58;100.00
7966;BME280;4028;43.272;26.932;2024-03-02T09:49:17;98817.66;;;11.50;100.00
7966;BME280;4028;43.272;26.932;2024-03-02T09:51:47;98823.75;;;11.76;100.00
7966;BME280;4028;43.272;26.932;2024-03-02T09:54:14;98815.53;;;11.87;100.00
7966;BME280;4028;43.272;26.932;2024-03-02T09:56:40;98799.69;;;11.95;100.00
7966;BME280;4028;43.272;26.932;2024-03-02T09:59:05;98808.91;;;12.42;100.00
7966;BME280;4028;43.272;26.932;2024-03-02T10:01:31;98800.28;;;12.89;100.00
7966;BME280;4028;43.272;26.932;2024-03-02T10:03:59;98797.78;;;13.04;100.00
7966;BME280;4028;43.272;26.932;2024-03-02T10:06:26;98789.97;;;13.18;100.00
7966;BME280;4028;43.272;26.932;2024-03-02T10:08:53;98770.56;;;13.10;100.00
7966;BME280;4028;43.272;26.932;2024-03-02T10:11:40;98786.97;;;13.30;100.00
7966;BME280;4028;43.272;26.932;2024-03-02T10:14:09;98755.84;;;13.55;100.00
7966;BME280;4028;43.272;26.932;2024-03-02T10:16:44;98773.19;;;14.13;100.00
7966;BME280;4028;43.272;26.932;2024-03-02T10:19:20;98771.19;;;14.38;100.00
7966;BME280;4028;43.272;26.932;2024-03-02T10:21:50;98770.69;;;14.65;100.00
7966;BME280;4028;43.272;26.932;2024-03-02T10:24:21;98767.00;;;15.04;100.00
7966;BME280;4028;43.272;26.932;2024-03-02T10:26:47;98767.34;;;14.86;95.98
7966;BME280;4028;43.272;26.932;2024-03-02T10:29:13;98765.91;;;14.61;100.00
7966;BME280;4028;43.272;26.932;2024-03-02T10:31:39;98766.97;;;14.51;100.00
7966;BME280;4028;43.272;26.932;2024-03-02T10:34:06;98753.03;;;15.02;96.36
7966;BME280;4028;43.272;26.932;2024-03-02T10:36:36;98756.19;;;15.50;86.45
7966;BME280;4028;43.272;26.932;2024-03-02T10:39:03;98735.59;;;15.14;88.45
7966;BME280;4028;43.272;26.932;2024-03-02T10:41:32;98754.53;;;15.49;86.15
7966;BME280;4028;43.272;26.932;2024-03-02T10:43:59;98734.50;;;15.53;87.93
7966;BME280;4028;43.272;26.932;2024-03-02T10:46:28;98747.81;;;16.83;75.54
7966;BME280;4028;43.272;26.932;2024-03-02T10:48:55;98739.25;;;17.22;68.94
7966;BME280;4028;43.272;26.932;2024-03-02T10:51:21;98747.94;;;16.32;69.33
7966;BME280;4028;43.272;26.932;2024-03-02T10:53:47;98734.59;;;15.45;76.91
7966;BME280;4028;43.272;26.932;2024-03-02T10:56:16;98742.41;;;15.46;82.09
7966;BME280;4028;43.272;26.932;2024-03-02T10:58:46;98721.91;;;15.17;84.26
7966;BME280;4028;43.272;26.932;2024-03-02T11:01:13;98726.41;;;15.46;84.81
7966;BME280;4028;43.272;26.932;2024-03-02T11:03:40;98731.25;;;15.87;80.36
7966;BME280;4028;43.272;26.932;2024-03-02T11:06:08;98691.59;;;15.84;79.72
7966;BME280;4028;43.272;26.932;2024-03-02T11:08:34;98721.25;;;15.59;80.95
7966;BME280;4028;43.272;26.932;2024-03-02T11:11:07;98721.00;;;15.10;87.22
7966;BME280;4028;43.272;26.932;2024-03-02T11:13:37;98722.28;;;15.29;87.66
7966;BME280;4028;43.272;26.932;2024-03-02T11:16:13;98719.13;;;15.55;88.59
7966;BME280;4028;43.272;26.932;2024-03-02T11:18:42;98717.69;;;16.03;80.08
7966;BME280;4028;43.272;26.932;2024-03-02T11:21:08;98721.28;;;16.17;76.82
7966;BME280;4028;43.272;26.932;2024-03-02T11:23:35;98708.56;;;16.62;73.91
7966;BME280;4028;43.272;26.932;2024-03-02T11:26:19;98712.72;;;17.21;69.70
7966;BME280;4028;43.272;26.932;2024-03-02T11:28:45;98708.53;;;16.55;68.63
7966;BME280;4028;43.272;26.932;2024-03-02T11:31:11;98707.25;;;16.73;69.69
7966;BME280;4028;43.272;26.932;2024-03-02T11:33:36;98711.28;;;16.41;69.44
7966;BME280;4028;43.272;26.932;2024-03-02T11:36:02;98711.06;;;16.21;72.18
7966;BME280;4028;43.272;26.932;2024-03-02T11:38:30;98710.25;;;16.20;70.89
7966;BME280;4028;43.272;26.932;2024-03-02T11:40:58;98702.69;;;16.45;71.68
7966;BME280;4028;43.272;26.932;2024-03-02T11:43:25;98698.06;;;17.10;66.58
7966;BME280;4028;43.272;26.932;2024-03-02T11:46:05;98709.56;;;16.33;67.91
7966;BME280;4028;43.272;26.932;2024-03-02T11:48:33;98703.31;;;16.69;66.17
7966;BME280;4028;43.272;26.932;2024-03-02T11:51:00;98700.16;;;16.86;69.55
7966;BME280;4028;43.272;26.932;2024-03-02T11:53:26;98692.38;;;17.67;63.41
7966;BME280;4028;43.272;26.932;2024-03-02T11:55:55;98692.97;;;18.17;60.84
7966;BME280;4028;43.272;26.932;2024-03-02T11:58:21;98694.78;;;18.10;61.09
7966;BME280;4028;43.272;26.932;2024-03-02T12:00:55;98688.75;;;17.82;59.64
7966;BME280;4028;43.272;26.932;2024-03-02T12:03:23;98689.75;;;17.74;59.94
7966;BME280;4028;43.272;26.932;2024-03-02T12:05:55;98683.19;;;17.77;59.71
7966;BME280;4028;43.272;26.932;2024-03-02T12:08:21;98679.91;;;17.88;59.17
7966;BME280;4028;43.272;26.932;2024-03-02T12:10:59;98678.06;;;17.95;58.79
7966;BME280;4028;43.272;26.932;2024-03-02T12:13:26;98679.59;;;17.70;59.37
7966;BME280;4028;43.272;26.932;2024-03-02T12:15:54;98677.13;;;17.61;60.63
7966;BME280;4028;43.272;26.932;2024-03-02T12:18:22;98681.59;;;17.48;59.82
7966;BME280;4028;43.272;26.932;2024-03-02T12:20:49;98683.81;;;17.37;60.42
7966;BME280;4028;43.272;26.932;2024-03-02T12:23:18;98683.09;;;17.15;61.29
7966;BME280;4028;43.272;26.932;2024-03-02T12:25:44;98679.41;;;16.88;63.08
7966;BME280;4028;43.272;26.932;2024-03-02T12:28:10;98679.28;;;17.03;64.25
7966;BME280;4028;43.272;26.932;2024-03-02T12:30:35;98655.56;;;16.87;63.18
7966;BME280;4028;43.272;26.932;2024-03-02T12:33:01;98670.19;;;17.26;62.21
7966;BME280;4028;43.272;26.932;2024-03-02T12:35:27;98671.72;;;17.48;61.36
7966;BME280;4028;43.272;26.932;2024-03-02T12:37:53;98675.03;;;18.18;58.39
7966;BME280;4028;43.272;26.932;2024-03-02T12:40:20;98678.56;;;18.72;55.15
7966;BME280;4028;43.272;26.932;2024-03-02T12:42:47;98675.47;;;18.28;56.99
7966;BME280;4028;43.272;26.932;2024-03-02T12:45:13;98677.88;;;17.42;59.44
7966;BME280;4028;43.272;26.932;2024-03-02T12:47:40;98684.75;;;16.88;62.47
7966;BME280;4028;43.272;26.932;2024-03-02T12:50:06;98679.41;;;16.88;62.80
7966;BME280;4028;43.272;26.932;2024-03-02T12:52:32;98677.50;;;17.10;60.61
7966;BME280;4028;43.272;26.932;2024-03-02T12:55:02;98667.31;;;17.27;59.23
7966;BME280;4028;43.272;26.932;2024-03-02T12:57:30;98666.28;;;17.35;59.96
7966;BME280;4028;43.272;26.932;2024-03-02T13:02:34;98677.34;;;16.84;60.86
7966;BME280;4028;43.272;26.932;2024-03-02T13:05:00;98672.88;;;16.70;61.51
7966;BME280;4028;43.272;26.932;2024-03-02T13:07:26;98678.84;;;16.44;63.48
7966;BME280;4028;43.272;26.932;2024-03-02T13:09:53;98688.38;;;16.31;64.14
7966;BME280;4028;43.272;26.932;2024-03-02T13:12:21;98679.78;;;16.36;64.43